sensor_id;sensor_type;location;lat;lon;timestamp;P1;durP1;ratioP1;P2;durP2;ratioP2
66179;SDS011;52986;44.028;20.466;2022-11-20T00:01:30;7.80;;;2.80;;
66179;SDS011;52986;44.028;20.466;2022-11-20T00:03:56;7.88;;;2.70;;
66179;SDS011;52986;44.028;20.466;2022-11-20T00:06:23;9.00;;;3.45;;
66179;SDS011;52986;44.028;20.466;2022-11-20T00:08:50;9.23;;;3.20;;
66179;SDS011;52986;44.028;20.466;2022-11-20T00:11:16;9.27;;;3.38;;
66179;SDS011;52986;44.028;20.466;2022-11-20T00:13:47;9.88;;;3.40;;
66179;SDS011;52986;44.028;20.466;2022-11-20T00:16:16;8.68;;;3.20;;
66179;SDS011;52986;44.028;20.466;2022-11-20T00:18:43;8.52;;;3.17;;
66179;SDS011;52986;44.028;20.466;2022-11-20T00:21:13;9.57;;;3.30;;
66179;SDS011;52986;44.028;20.466;2022-11-20T00:23:40;12.85;;;5.47;;
66179;SDS011;52986;44.028;20.466;2022-11-20T00:26:07;14.57;;;6.25;;
66179;SDS011;52986;44.028;20.466;2022-11-20T00:28:34;17.38;;;8.50;;
66179;SDS011;52986;44.028;20.466;2022-11-20T00:31:13;16.65;;;7.40;;
66179;SDS011;52986;44.028;20.466;2022-11-20T00:33:40;18.42;;;7.65;;
66179;SDS011;52986;44.028;20.466;2022-11-20T00:36:07;15.07;;;7.20;;
66179;SDS011;52986;44.028;20.466;2022-11-20T00:38:35;16.77;;;7.30;;
66179;SDS011;52986;44.028;20.466;2022-11-20T00:41:02;33.05;;;14.48;;
66179;SDS011;52986;44.028;20.466;2022-11-20T00:43:29;25.45;;;11.70;;
66179;SDS011;52986;44.028;20.466;2022-11-20T00:48:24;14.02;;;5.60;;
66179;SDS011;52986;44.028;20.466;2022-11-20T00:50:50;12.27;;;5.22;;
66179;SDS011;52986;44.028;20.466;2022-11-20T00:53:15;11.68;;;4.47;;
66179;SDS011;52986;44.028;20.466;2022-11-20T00:55:41;11.85;;;4.70;;
66179;SDS011;52986;44.028;20.466;2022-11-20T00:58:06;13.57;;;5.00;;
66179;SDS011;52986;44.028;20.466;2022-11-20T01:00:31;15.23;;;5.97;;
66179;SDS011;52986;44.028;20.466;2022-11-20T01:02:57;14.00;;;6.43;;
66179;SDS011;52986;44.028;20.466;2022-11-20T01:05:22;14.57;;;6.40;;
66179;SDS011;52986;44.028;20.466;2022-11-20T01:07:47;18.75;;;8.23;;
66179;SDS011;52986;44.028;20.466;2022-11-20T01:10:13;16.02;;;6.50;;
66179;SDS011;52986;44.028;20.466;2022-11-20T01:12:38;16.33;;;7.13;;
66179;SDS011;52986;44.028;20.466;2022-11-20T01:15:04;16.58;;;7.30;;
66179;SDS011;52986;44.028;20.466;2022-11-20T01:17:30;17.73;;;7.05;;
66179;SDS011;52986;44.028;20.466;2022-11-20T01:19:56;14.27;;;6.68;;
66179;SDS011;52986;44.028;20.466;2022-11-20T01:22:22;13.63;;;5.45;;
66179;SDS011;52986;44.028;20.466;2022-11-20T01:24:47;11.48;;;4.80;;
66179;SDS011;52986;44.028;20.466;2022-11-20T01:27:12;11.17;;;4.57;;
66179;SDS011;52986;44.028;20.466;2022-11-20T01:29:38;11.07;;;4.47;;
66179;SDS011;52986;44.028;20.466;2022-11-20T01:32:03;11.88;;;4.57;;
66179;SDS011;52986;44.028;20.466;2022-11-20T01:34:29;18.00;;;8.00;;
66179;SDS011;52986;44.028;20.466;2022-11-20T01:36:54;17.50;;;7.32;;
66179;SDS011;52986;44.028;20.466;2022-11-20T01:39:21;13.20;;;5.93;;
66179;SDS011;52986;44.028;20.466;2022-11-20T01:41:48;11.60;;;4.70;;
66179;SDS011;52986;44.028;20.466;2022-11-20T01:47:12;12.20;;;5.32;;
66179;SDS011;52986;44.028;20.466;2022-11-20T01:49:42;13.25;;;5.10;;
66179;SDS011;52986;44.028;20.466;2022-11-20T01:57:33;14.60;;;6.10;;
66179;SDS011;52986;44.028;20.466;2022-11-20T02:00:05;14.15;;;6.30;;
66179;SDS011;52986;44.028;20.466;2022-11-20T02:02:33;15.10;;;6.80;;
66179;SDS011;52986;44.028;20.466;2022-11-20T02:05:00;14.60;;;7.10;;
66179;SDS011;52986;44.028;20.466;2022-11-20T02:07:41;15.13;;;6.80;;
66179;SDS011;52986;44.028;20.466;2022-11-20T02:10:07;16.35;;;7.22;;
66179;SDS011;52986;44.028;20.466;2022-11-20T02:12:32;15.20;;;6.43;;
66179;SDS011;52986;44.028;20.466;2022-11-20T02:15:16;13.88;;;5.82;;
66179;SDS011;52986;44.028;20.466;2022-11-20T02:17:42;11.68;;;4.88;;
66179;SDS011;52986;44.028;20.466;2022-11-20T02:20:07;11.18;;;4.80;;
66179;SDS011;52986;44.028;20.466;2022-11-20T02:22:36;11.25;;;4.43;;
66179;SDS011;52986;44.028;20.466;2022-11-20T02:25:08;9.57;;;3.78;;
66179;SDS011;52986;44.028;20.466;2022-11-20T02:27:35;9.85;;;3.80;;
66179;SDS011;52986;44.028;20.466;2022-11-20T02:30:02;10.23;;;4.15;;
66179;SDS011;52986;44.028;20.466;2022-11-20T02:32:33;11.43;;;4.20;;
66179;SDS011;52986;44.028;20.466;2022-11-20T02:35:35;11.15;;;4.45;;
66179;SDS011;52986;44.028;20.466;2022-11-20T02:37:53;11.25;;;4.50;;
66179;SDS011;52986;44.028;20.466;2022-11-20T02:40:19;11.82;;;5.15;;
66179;SDS011;52986;44.028;20.466;2022-11-20T02:42:45;13.68;;;5.63;;
66179;SDS011;52986;44.028;20.466;2022-11-20T02:45:11;14.07;;;6.32;;
66179;SDS011;52986;44.028;20.466;2022-11-20T02:47:36;13.73;;;6.40;;
66179;SDS011;52986;44.028;20.466;2022-11-20T02:50:02;12.73;;;6.07;;
66179;SDS011;52986;44.028;20.466;2022-11-20T02:52:28;12.23;;;5.70;;
66179;SDS011;52986;44.028;20.466;2022-11-20T02:54:54;13.77;;;6.28;;
66179;SDS011;52986;44.028;20.466;2022-11-20T02:57:20;16.98;;;7.20;;
66179;SDS011;52986;44.028;20.466;2022-11-20T02:59:45;21.15;;;10.68;;
66179;SDS011;52986;44.028;20.466;2022-11-20T03:02:11;32.53;;;15.63;;
66179;SDS011;52986;44.028;20.466;2022-11-20T03:04:36;24.08;;;12.23;;
66179;SDS011;52986;44.028;20.466;2022-11-20T03:07:01;27.02;;;13.18;;
66179;SDS011;52986;44.028;20.466;2022-11-20T03:09:27;23.83;;;12.38;;
66179;SDS011;52986;44.028;20.466;2022-11-20T03:11:52;24.08;;;12.85;;
66179;SDS011;52986;44.028;20.466;2022-11-20T03:14:18;26.58;;;13.43;;
66179;SDS011;52986;44.028;20.466;2022-11-20T03:16:43;25.48;;;12.80;;
66179;SDS011;52986;44.028;20.466;2022-11-20T03:19:08;21.13;;;10.57;;
66179;SDS011;52986;44.028;20.466;2022-11-20T03:21:34;19.08;;;9.15;;
66179;SDS011;52986;44.028;20.466;2022-11-20T03:24:00;18.20;;;9.45;;
66179;SDS011;52986;44.028;20.466;2022-11-20T03:26:26;19.90;;;10.23;;
66179;SDS011;52986;44.028;20.466;2022-11-20T03:28:53;17.30;;;8.05;;
66179;SDS011;52986;44.028;20.466;2022-11-20T03:31:22;16.00;;;7.93;;
66179;SDS011;52986;44.028;20.466;2022-11-20T03:34:06;15.40;;;7.15;;
66179;SDS011;52986;44.028;20.466;2022-11-20T03:36:33;12.27;;;5.30;;
66179;SDS011;52986;44.028;20.466;2022-11-20T03:38:58;12.77;;;5.57;;
66179;SDS011;52986;44.028;20.466;2022-11-20T03:41:25;14.60;;;6.60;;
66179;SDS011;52986;44.028;20.466;2022-11-20T03:43:56;19.13;;;8.15;;
66179;SDS011;52986;44.028;20.466;2022-11-20T03:46:23;14.13;;;6.30;;
66179;SDS011;52986;44.028;20.466;2022-11-20T03:48:49;17.00;;;8.18;;
66179;SDS011;52986;44.028;20.466;2022-11-20T03:51:16;17.83;;;8.40;;
66179;SDS011;52986;44.028;20.466;2022-11-20T03:53:50;14.00;;;6.20;;
66179;SDS011;52986;44.028;20.466;2022-11-20T03:56:17;13.02;;;6.03;;
66179;SDS011;52986;44.028;20.466;2022-11-20T03:58:44;14.25;;;6.53;;
66179;SDS011;52986;44.028;20.466;2022-11-20T04:01:11;14.25;;;6.57;;
66179;SDS011;52986;44.028;20.466;2022-11-20T04:03:47;16.10;;;6.78;;
66179;SDS011;52986;44.028;20.466;2022-11-20T04:06:14;15.80;;;6.75;;
66179;SDS011;52986;44.028;20.466;2022-11-20T04:08:40;15.05;;;6.88;;
66179;SDS011;52986;44.028;20.466;2022-11-20T04:11:12;16.02;;;7.80;;
66179;SDS011;52986;44.028;20.466;2022-11-20T04:13:38;16.80;;;7.93;;
66179;SDS011;52986;44.028;20.466;2022-11-20T04:16:05;17.23;;;7.82;;
66179;SDS011;52986;44.028;20.466;2022-11-20T04:18:31;15.90;;;7.25;;
66179;SDS011;52986;44.028;20.466;2022-11-20T04:20:57;14.40;;;6.43;;
66179;SDS011;52986;44.028;20.466;2022-11-20T04:23:23;13.23;;;6.03;;
66179;SDS011;52986;44.028;20.466;2022-11-20T04:25:49;13.45;;;5.55;;
66179;SDS011;52986;44.028;20.466;2022-11-20T04:28:14;14.57;;;6.03;;
66179;SDS011;52986;44.028;20.466;2022-11-20T04:30:39;12.55;;;5.53;;
66179;SDS011;52986;44.028;20.466;2022-11-20T04:33:05;12.98;;;5.80;;
66179;SDS011;52986;44.028;20.466;2022-11-20T04:35:33;15.20;;;6.38;;
66179;SDS011;52986;44.028;20.466;2022-11-20T04:37:59;15.23;;;7.07;;
66179;SDS011;52986;44.028;20.466;2022-11-20T04:40:24;15.63;;;7.03;;
66179;SDS011;52986;44.028;20.466;2022-11-20T04:42:50;14.85;;;6.10;;
66179;SDS011;52986;44.028;20.466;2022-11-20T04:45:15;17.33;;;6.93;;
66179;SDS011;52986;44.028;20.466;2022-11-20T04:47:40;14.07;;;5.77;;
66179;SDS011;52986;44.028;20.466;2022-11-20T04:50:06;13.38;;;6.03;;
66179;SDS011;52986;44.028;20.466;2022-11-20T04:52:31;16.80;;;7.40;;
66179;SDS011;52986;44.028;20.466;2022-11-20T04:54:57;16.33;;;6.87;;
66179;SDS011;52986;44.028;20.466;2022-11-20T04:57:22;16.25;;;7.25;;
66179;SDS011;52986;44.028;20.466;2022-11-20T04:59:47;15.73;;;6.80;;
66179;SDS011;52986;44.028;20.466;2022-11-20T05:02:13;13.93;;;6.10;;
66179;SDS011;52986;44.028;20.466;2022-11-20T05:04:38;15.27;;;7.50;;
66179;SDS011;52986;44.028;20.466;2022-11-20T05:07:03;14.90;;;6.50;;
66179;SDS011;52986;44.028;20.466;2022-11-20T05:09:29;14.88;;;6.38;;
66179;SDS011;52986;44.028;20.466;2022-11-20T05:11:55;15.48;;;7.18;;
66179;SDS011;52986;44.028;20.466;2022-11-20T05:14:20;13.23;;;5.75;;
66179;SDS011;52986;44.028;20.466;2022-11-20T05:16:45;12.65;;;5.40;;
66179;SDS011;52986;44.028;20.466;2022-11-20T05:19:11;13.60;;;6.28;;
66179;SDS011;52986;44.028;20.466;2022-11-20T05:21:36;15.68;;;6.70;;
66179;SDS011;52986;44.028;20.466;2022-11-20T05:24:01;16.02;;;6.78;;
66179;SDS011;52986;44.028;20.466;2022-11-20T05:26:27;17.85;;;8.15;;
66179;SDS011;52986;44.028;20.466;2022-11-20T05:28:52;16.70;;;8.13;;
66179;SDS011;52986;44.028;20.466;2022-11-20T05:31:19;16.88;;;8.23;;
66179;SDS011;52986;44.028;20.466;2022-11-20T05:33:46;19.33;;;9.48;;
66179;SDS011;52986;44.028;20.466;2022-11-20T05:36:12;15.88;;;6.95;;
66179;SDS011;52986;44.028;20.466;2022-11-20T05:38:39;18.88;;;8.15;;
66179;SDS011;52986;44.028;20.466;2022-11-20T05:41:09;23.67;;;9.52;;
66179;SDS011;52986;44.028;20.466;2022-11-20T05:43:40;25.17;;;10.02;;
66179;SDS011;52986;44.028;20.466;2022-11-20T05:46:07;21.95;;;9.43;;
66179;SDS011;52986;44.028;20.466;2022-11-20T05:48:34;23.15;;;9.90;;
66179;SDS011;52986;44.028;20.466;2022-11-20T05:51:00;22.35;;;9.32;;
66179;SDS011;52986;44.028;20.466;2022-11-20T05:53:28;22.35;;;9.63;;
66179;SDS011;52986;44.028;20.466;2022-11-20T05:55:57;20.42;;;9.05;;
66179;SDS011;52986;44.028;20.466;2022-11-20T05:58:27;22.65;;;9.27;;
66179;SDS011;52986;44.028;20.466;2022-11-20T06:00:53;22.25;;;9.20;;
66179;SDS011;52986;44.028;20.466;2022-11-20T06:03:18;23.88;;;9.98;;
66179;SDS011;52986;44.028;20.466;2022-11-20T06:05:44;25.83;;;11.07;;
66179;SDS011;52986;44.028;20.466;2022-11-20T06:08:09;25.25;;;10.27;;
66179;SDS011;52986;44.028;20.466;2022-11-20T06:10:35;25.63;;;9.77;;
66179;SDS011;52986;44.028;20.466;2022-11-20T06:13:00;29.80;;;10.70;;
66179;SDS011;52986;44.028;20.466;2022-11-20T06:15:25;37.50;;;11.82;;
66179;SDS011;52986;44.028;20.466;2022-11-20T06:17:54;27.42;;;11.50;;
66179;SDS011;52986;44.028;20.466;2022-11-20T06:20:21;31.65;;;11.73;;
66179;SDS011;52986;44.028;20.466;2022-11-20T06:22:47;30.02;;;12.20;;
66179;SDS011;52986;44.028;20.466;2022-11-20T06:25:12;30.25;;;11.75;;
66179;SDS011;52986;44.028;20.466;2022-11-20T06:27:38;39.30;;;11.77;;
66179;SDS011;52986;44.028;20.466;2022-11-20T06:30:04;28.50;;;12.00;;
66179;SDS011;52986;44.028;20.466;2022-11-20T06:32:30;32.97;;;13.48;;
66179;SDS011;52986;44.028;20.466;2022-11-20T06:34:55;37.65;;;14.55;;
66179;SDS011;52986;44.028;20.466;2022-11-20T06:37:20;30.75;;;12.27;;
66179;SDS011;52986;44.028;20.466;2022-11-20T06:39:46;36.60;;;14.13;;
66179;SDS011;52986;44.028;20.466;2022-11-20T06:42:11;32.33;;;12.50;;
66179;SDS011;52986;44.028;20.466;2022-11-20T06:44:36;29.33;;;12.15;;
66179;SDS011;52986;44.028;20.466;2022-11-20T06:47:02;31.58;;;12.50;;
66179;SDS011;52986;44.028;20.466;2022-11-20T06:49:27;32.50;;;13.15;;
66179;SDS011;52986;44.028;20.466;2022-11-20T06:51:52;42.80;;;14.55;;
66179;SDS011;52986;44.028;20.466;2022-11-20T06:54:18;30.73;;;12.07;;
66179;SDS011;52986;44.028;20.466;2022-11-20T06:56:46;25.08;;;9.63;;
66179;SDS011;52986;44.028;20.466;2022-11-20T06:59:12;25.02;;;10.77;;
66179;SDS011;52986;44.028;20.466;2022-11-20T07:01:38;27.73;;;11.57;;
66179;SDS011;52986;44.028;20.466;2022-11-20T07:04:03;28.23;;;10.90;;
66179;SDS011;52986;44.028;20.466;2022-11-20T07:06:29;25.38;;;10.95;;
66179;SDS011;52986;44.028;20.466;2022-11-20T07:08:54;31.98;;;12.05;;
66179;SDS011;52986;44.028;20.466;2022-11-20T07:11:20;24.42;;;10.77;;
66179;SDS011;52986;44.028;20.466;2022-11-20T07:13:45;19.90;;;8.63;;
66179;SDS011;52986;44.028;20.466;2022-11-20T07:16:10;18.80;;;7.75;;
66179;SDS011;52986;44.028;20.466;2022-11-20T07:18:36;18.05;;;8.13;;
66179;SDS011;52986;44.028;20.466;2022-11-20T07:21:02;20.00;;;8.18;;
66179;SDS011;52986;44.028;20.466;2022-11-20T07:23:30;18.45;;;8.23;;
66179;SDS011;52986;44.028;20.466;2022-11-20T07:25:56;16.70;;;7.35;;
66179;SDS011;52986;44.028;20.466;2022-11-20T07:28:21;16.45;;;7.63;;
66179;SDS011;52986;44.028;20.466;2022-11-20T07:30:50;19.65;;;9.13;;
66179;SDS011;52986;44.028;20.466;2022-11-20T07:33:16;17.60;;;8.10;;
66179;SDS011;52986;44.028;20.466;2022-11-20T07:35:42;16.48;;;6.90;;
66179;SDS011;52986;44.028;20.466;2022-11-20T07:38:07;17.30;;;7.82;;
66179;SDS011;52986;44.028;20.466;2022-11-20T07:40:33;17.48;;;8.35;;
66179;SDS011;52986;44.028;20.466;2022-11-20T07:42:58;19.50;;;9.45;;
66179;SDS011;52986;44.028;20.466;2022-11-20T07:45:23;20.67;;;9.90;;
66179;SDS011;52986;44.028;20.466;2022-11-20T07:47:49;20.02;;;8.85;;
66179;SDS011;52986;44.028;20.466;2022-11-20T07:50:15;25.85;;;13.07;;
66179;SDS011;52986;44.028;20.466;2022-11-20T07:52:40;23.77;;;12.43;;
66179;SDS011;52986;44.028;20.466;2022-11-20T07:55:06;21.55;;;10.48;;
66179;SDS011;52986;44.028;20.466;2022-11-20T07:57:32;33.97;;;13.85;;
66179;SDS011;52986;44.028;20.466;2022-11-20T07:59:58;44.33;;;16.98;;
66179;SDS011;52986;44.028;20.466;2022-11-20T08:02:23;35.55;;;15.15;;
66179;SDS011;52986;44.028;20.466;2022-11-20T08:04:48;31.10;;;13.65;;
66179;SDS011;52986;44.028;20.466;2022-11-20T08:07:14;34.28;;;14.85;;
66179;SDS011;52986;44.028;20.466;2022-11-20T08:09:39;27.00;;;12.50;;
66179;SDS011;52986;44.028;20.466;2022-11-20T08:12:05;23.08;;;10.82;;
66179;SDS011;52986;44.028;20.466;2022-11-20T08:14:49;26.27;;;12.30;;
66179;SDS011;52986;44.028;20.466;2022-11-20T08:17:14;22.23;;;10.32;;
66179;SDS011;52986;44.028;20.466;2022-11-20T08:19:40;23.08;;;11.27;;
66179;SDS011;52986;44.028;20.466;2022-11-20T08:22:05;23.08;;;11.05;;
66179;SDS011;52986;44.028;20.466;2022-11-20T08:24:31;20.85;;;9.77;;
66179;SDS011;52986;44.028;20.466;2022-11-20T08:26:59;21.23;;;9.60;;
66179;SDS011;52986;44.028;20.466;2022-11-20T08:29:28;19.15;;;8.23;;
66179;SDS011;52986;44.028;20.466;2022-11-20T08:31:53;15.73;;;7.13;;
66179;SDS011;52986;44.028;20.466;2022-11-20T08:34:18;15.25;;;7.28;;
66179;SDS011;52986;44.028;20.466;2022-11-20T08:36:45;17.23;;;8.60;;
66179;SDS011;52986;44.028;20.466;2022-11-20T08:39:11;18.70;;;8.80;;
66179;SDS011;52986;44.028;20.466;2022-11-20T08:41:37;15.02;;;7.18;;
66179;SDS011;52986;44.028;20.466;2022-11-20T08:44:03;13.68;;;6.38;;
66179;SDS011;52986;44.028;20.466;2022-11-20T08:46:34;16.58;;;7.35;;
66179;SDS011;52986;44.028;20.466;2022-11-20T08:49:08;18.00;;;8.43;;
66179;SDS011;52986;44.028;20.466;2022-11-20T08:51:35;15.75;;;7.68;;
66179;SDS011;52986;44.028;20.466;2022-11-20T08:54:01;15.77;;;7.57;;
66179;SDS011;52986;44.028;20.466;2022-11-20T08:56:26;16.95;;;8.23;;
66179;SDS011;52986;44.028;20.466;2022-11-20T08:58:52;21.98;;;10.55;;
66179;SDS011;52986;44.028;20.466;2022-11-20T09:01:18;19.33;;;8.65;;
66179;SDS011;52986;44.028;20.466;2022-11-20T09:03:44;22.02;;;9.02;;
66179;SDS011;52986;44.028;20.466;2022-11-20T09:06:09;22.08;;;9.68;;
66179;SDS011;52986;44.028;20.466;2022-11-20T09:08:35;19.75;;;9.45;;
66179;SDS011;52986;44.028;20.466;2022-11-20T09:11:01;25.55;;;10.93;;
66179;SDS011;52986;44.028;20.466;2022-11-20T09:13:27;20.40;;;9.77;;
66179;SDS011;52986;44.028;20.466;2022-11-20T09:15:54;21.20;;;9.05;;
66179;SDS011;52986;44.028;20.466;2022-11-20T09:18:21;20.23;;;8.82;;
66179;SDS011;52986;44.028;20.466;2022-11-20T09:20:46;17.42;;;7.50;;
66179;SDS011;52986;44.028;20.466;2022-11-20T09:23:12;18.50;;;8.40;;
66179;SDS011;52986;44.028;20.466;2022-11-20T09:25:37;23.60;;;10.97;;
66179;SDS011;52986;44.028;20.466;2022-11-20T09:28:03;23.27;;;10.82;;
66179;SDS011;52986;44.028;20.466;2022-11-20T09:30:29;22.15;;;10.20;;
66179;SDS011;52986;44.028;20.466;2022-11-20T09:32:55;20.85;;;9.80;;
66179;SDS011;52986;44.028;20.466;2022-11-20T09:35:21;26.55;;;12.48;;
66179;SDS011;52986;44.028;20.466;2022-11-20T09:37:47;30.08;;;13.90;;
66179;SDS011;52986;44.028;20.466;2022-11-20T09:40:25;28.67;;;13.32;;
66179;SDS011;52986;44.028;20.466;2022-11-20T09:43:13;27.63;;;12.25;;
66179;SDS011;52986;44.028;20.466;2022-11-20T09:48:32;28.05;;;13.32;;
66179;SDS011;52986;44.028;20.466;2022-11-20T09:56:39;23.90;;;11.00;;
66179;SDS011;52986;44.028;20.466;2022-11-20T09:59:14;20.80;;;9.48;;
66179;SDS011;52986;44.028;20.466;2022-11-20T10:02:28;24.63;;;10.75;;
66179;SDS011;52986;44.028;20.466;2022-11-20T10:05:18;24.10;;;10.48;;
66179;SDS011;52986;44.028;20.466;2022-11-20T10:07:50;24.35;;;10.88;;
66179;SDS011;52986;44.028;20.466;2022-11-20T10:10:37;26.17;;;11.55;;
66179;SDS011;52986;44.028;20.466;2022-11-20T10:18:39;26.85;;;12.52;;
66179;SDS011;52986;44.028;20.466;2022-11-20T10:24:23;22.42;;;9.95;;
66179;SDS011;52986;44.028;20.466;2022-11-20T10:29:16;27.67;;;11.95;;
66179;SDS011;52986;44.028;20.466;2022-11-20T10:31:44;20.83;;;9.30;;
66179;SDS011;52986;44.028;20.466;2022-11-20T10:34:21;22.30;;;9.40;;
66179;SDS011;52986;44.028;20.466;2022-11-20T10:36:53;21.80;;;9.90;;
66179;SDS011;52986;44.028;20.466;2022-11-20T10:41:52;23.45;;;9.73;;
66179;SDS011;52986;44.028;20.466;2022-11-20T10:44:24;34.08;;;10.85;;
66179;SDS011;52986;44.028;20.466;2022-11-20T10:47:14;24.23;;;10.68;;
66179;SDS011;52986;44.028;20.466;2022-11-20T10:49:41;25.85;;;11.60;;
66179;SDS011;52986;44.028;20.466;2022-11-20T10:54:47;37.53;;;16.98;;
66179;SDS011;52986;44.028;20.466;2022-11-20T11:00:04;33.15;;;14.98;;
66179;SDS011;52986;44.028;20.466;2022-11-20T11:02:52;28.70;;;12.27;;
66179;SDS011;52986;44.028;20.466;2022-11-20T11:07:45;33.97;;;16.33;;
66179;SDS011;52986;44.028;20.466;2022-11-20T11:10:15;31.77;;;14.90;;
66179;SDS011;52986;44.028;20.466;2022-11-20T11:12:44;34.03;;;15.23;;
66179;SDS011;52986;44.028;20.466;2022-11-20T11:15:25;25.20;;;11.13;;
66179;SDS011;52986;44.028;20.466;2022-11-20T11:17:52;28.80;;;12.90;;
66179;SDS011;52986;44.028;20.466;2022-11-20T11:20:19;30.92;;;13.70;;
66179;SDS011;52986;44.028;20.466;2022-11-20T11:25:25;29.25;;;12.88;;
66179;SDS011;52986;44.028;20.466;2022-11-20T11:27:53;30.15;;;14.55;;
66179;SDS011;52986;44.028;20.466;2022-11-20T11:30:21;34.80;;;15.52;;
66179;SDS011;52986;44.028;20.466;2022-11-20T11:32:48;32.80;;;14.95;;
66179;SDS011;52986;44.028;20.466;2022-11-20T11:35:21;32.90;;;14.73;;
66179;SDS011;52986;44.028;20.466;2022-11-20T11:37:53;30.05;;;13.73;;
66179;SDS011;52986;44.028;20.466;2022-11-20T11:40:26;24.40;;;11.48;;
66179;SDS011;52986;44.028;20.466;2022-11-20T11:42:59;24.08;;;10.88;;
66179;SDS011;52986;44.028;20.466;2022-11-20T11:45:29;22.05;;;9.40;;
66179;SDS011;52986;44.028;20.466;2022-11-20T11:47:56;22.40;;;9.70;;
66179;SDS011;52986;44.028;20.466;2022-11-20T11:50:27;25.80;;;11.32;;
66179;SDS011;52986;44.028;20.466;2022-11-20T11:52:56;22.85;;;9.75;;
66179;SDS011;52986;44.028;20.466;2022-11-20T11:58:10;26.40;;;11.85;;
66179;SDS011;52986;44.028;20.466;2022-11-20T12:00:45;28.25;;;12.05;;
66179;SDS011;52986;44.028;20.466;2022-11-20T12:03:21;25.75;;;12.02;;
66179;SDS011;52986;44.028;20.466;2022-11-20T12:05:58;27.08;;;13.18;;
66179;SDS011;52986;44.028;20.466;2022-11-20T12:14:08;30.50;;;13.43;;
66179;SDS011;52986;44.028;20.466;2022-11-20T12:16:36;30.23;;;12.38;;
66179;SDS011;52986;44.028;20.466;2022-11-20T12:19:04;28.60;;;12.60;;
66179;SDS011;52986;44.028;20.466;2022-11-20T12:29:32;30.45;;;13.63;;
66179;SDS011;52986;44.028;20.466;2022-11-20T12:34:51;25.42;;;10.50;;
66179;SDS011;52986;44.028;20.466;2022-11-20T13:07:53;26.35;;;11.75;;
66179;SDS011;52986;44.028;20.466;2022-11-20T13:13:13;30.55;;;12.70;;
66179;SDS011;52986;44.028;20.466;2022-11-20T13:15:51;26.35;;;12.07;;
66179;SDS011;52986;44.028;20.466;2022-11-20T13:18:19;25.10;;;11.90;;
66179;SDS011;52986;44.028;20.466;2022-11-20T13:20:45;35.67;;;13.75;;
66179;SDS011;52986;44.028;20.466;2022-11-20T13:23:22;25.90;;;11.48;;
66179;SDS011;52986;44.028;20.466;2022-11-20T13:25:49;22.23;;;9.60;;
66179;SDS011;52986;44.028;20.466;2022-11-20T13:30:53;23.17;;;10.33;;
66179;SDS011;52986;44.028;20.466;2022-11-20T13:35:56;21.17;;;9.15;;
66179;SDS011;52986;44.028;20.466;2022-11-20T13:41:32;20.35;;;9.27;;
66179;SDS011;52986;44.028;20.466;2022-11-20T13:46:36;22.10;;;9.38;;
66179;SDS011;52986;44.028;20.466;2022-11-20T13:49:06;21.25;;;9.38;;
66179;SDS011;52986;44.028;20.466;2022-11-20T13:51:51;16.92;;;7.82;;
66179;SDS011;52986;44.028;20.466;2022-11-20T14:02:39;24.05;;;10.30;;
66179;SDS011;52986;44.028;20.466;2022-11-20T14:05:11;24.50;;;10.35;;
66179;SDS011;52986;44.028;20.466;2022-11-20T14:07:44;26.80;;;12.05;;
66179;SDS011;52986;44.028;20.466;2022-11-20T14:10:27;30.80;;;14.20;;
66179;SDS011;52986;44.028;20.466;2022-11-20T14:12:53;38.88;;;16.85;;
66179;SDS011;52986;44.028;20.466;2022-11-20T14:15:29;47.60;;;21.02;;
66179;SDS011;52986;44.028;20.466;2022-11-20T14:17:57;30.90;;;13.95;;
66179;SDS011;52986;44.028;20.466;2022-11-20T14:20:27;33.30;;;15.25;;
66179;SDS011;52986;44.028;20.466;2022-11-20T14:22:56;21.48;;;9.93;;
66179;SDS011;52986;44.028;20.466;2022-11-20T14:25:25;20.65;;;9.25;;
66179;SDS011;52986;44.028;20.466;2022-11-20T14:27:57;14.98;;;6.78;;
66179;SDS011;52986;44.028;20.466;2022-11-20T14:30:47;17.42;;;7.72;;
66179;SDS011;52986;44.028;20.466;2022-11-20T14:33:10;26.02;;;12.13;;
66179;SDS011;52986;44.028;20.466;2022-11-20T14:35:47;23.65;;;11.35;;
66179;SDS011;52986;44.028;20.466;2022-11-20T14:38:15;27.58;;;12.93;;
66179;SDS011;52986;44.028;20.466;2022-11-20T14:40:43;21.98;;;10.05;;
66179;SDS011;52986;44.028;20.466;2022-11-20T14:43:20;17.85;;;8.25;;
66179;SDS011;52986;44.028;20.466;2022-11-20T14:46:00;17.90;;;8.40;;
66179;SDS011;52986;44.028;20.466;2022-11-20T14:48:39;22.27;;;9.98;;
66179;SDS011;52986;44.028;20.466;2022-11-20T14:51:05;18.63;;;8.57;;
66179;SDS011;52986;44.028;20.466;2022-11-20T14:53:30;23.77;;;10.77;;
66179;SDS011;52986;44.028;20.466;2022-11-20T14:55:57;20.70;;;8.77;;
66179;SDS011;52986;44.028;20.466;2022-11-20T14:58:28;21.75;;;10.65;;
66179;SDS011;52986;44.028;20.466;2022-11-20T15:01:06;23.17;;;10.68;;
66179;SDS011;52986;44.028;20.466;2022-11-20T15:03:33;20.95;;;9.63;;
66179;SDS011;52986;44.028;20.466;2022-11-20T15:06:01;16.95;;;8.52;;
66179;SDS011;52986;44.028;20.466;2022-11-20T15:08:27;21.20;;;9.90;;
66179;SDS011;52986;44.028;20.466;2022-11-20T15:10:53;28.77;;;12.05;;
66179;SDS011;52986;44.028;20.466;2022-11-20T15:13:26;15.43;;;7.55;;
66179;SDS011;52986;44.028;20.466;2022-11-20T15:15:57;16.00;;;7.72;;
66179;SDS011;52986;44.028;20.466;2022-11-20T15:18:31;17.75;;;8.23;;
66179;SDS011;52986;44.028;20.466;2022-11-20T15:21:02;26.27;;;11.88;;
66179;SDS011;52986;44.028;20.466;2022-11-20T15:23:29;21.83;;;9.38;;
66179;SDS011;52986;44.028;20.466;2022-11-20T15:25:54;16.27;;;7.72;;
66179;SDS011;52986;44.028;20.466;2022-11-20T15:28:21;16.30;;;8.00;;
66179;SDS011;52986;44.028;20.466;2022-11-20T15:30:52;17.10;;;8.00;;
66179;SDS011;52986;44.028;20.466;2022-11-20T15:33:18;16.30;;;6.80;;
66179;SDS011;52986;44.028;20.466;2022-11-20T15:35:44;19.10;;;8.75;;
66179;SDS011;52986;44.028;20.466;2022-11-20T15:38:10;17.38;;;7.90;;
66179;SDS011;52986;44.028;20.466;2022-11-20T15:40:35;19.42;;;8.60;;
66179;SDS011;52986;44.028;20.466;2022-11-20T15:43:01;26.25;;;11.75;;
66179;SDS011;52986;44.028;20.466;2022-11-20T15:45:36;24.38;;;11.18;;
66179;SDS011;52986;44.028;20.466;2022-11-20T15:48:09;27.42;;;12.85;;
66179;SDS011;52986;44.028;20.466;2022-11-20T15:50:43;22.20;;;9.80;;
66179;SDS011;52986;44.028;20.466;2022-11-20T15:53:15;20.05;;;9.88;;
66179;SDS011;52986;44.028;20.466;2022-11-20T15:55:41;24.00;;;11.55;;
66179;SDS011;52986;44.028;20.466;2022-11-20T15:58:06;30.38;;;13.93;;
66179;SDS011;52986;44.028;20.466;2022-11-20T16:00:32;16.95;;;8.85;;
66179;SDS011;52986;44.028;20.466;2022-11-20T16:02:58;17.15;;;8.35;;
66179;SDS011;52986;44.028;20.466;2022-11-20T16:05:25;24.05;;;10.80;;
66179;SDS011;52986;44.028;20.466;2022-11-20T16:07:53;22.85;;;10.73;;
66179;SDS011;52986;44.028;20.466;2022-11-20T16:10:18;23.10;;;11.40;;
66179;SDS011;52986;44.028;20.466;2022-11-20T16:12:44;19.55;;;9.68;;
66179;SDS011;52986;44.028;20.466;2022-11-20T16:15:28;17.95;;;8.43;;
66179;SDS011;52986;44.028;20.466;2022-11-20T16:18:19;19.58;;;9.13;;